createdAt,value
2018-03-03T00:01:23.415Z,-2.50
2018-03-03T00:03:51.870Z,-2.50
2018-03-03T00:06:19.943Z,-2.40
2018-03-03T00:08:47.482Z,-2.50
2018-03-03T00:11:15.167Z,-2.40
2018-03-03T00:13:42.694Z,-2.30
2018-03-03T00:16:11.006Z,-2.30
2018-03-03T00:18:38.549Z,-2.40
2018-03-03T00:21:06.962Z,-2.30
2018-03-03T00:23:34.556Z,-2.30
2018-03-03T00:26:03.069Z,-2.20
2018-03-03T00:28:30.748Z,-2.30
2018-03-03T00:30:58.410Z,-2.20
2018-03-03T00:33:26.277Z,-2.30
2018-03-03T00:35:54.349Z,-2.20
2018-03-03T00:38:22.512Z,-2.30
2018-03-03T00:40:50.608Z,-2.30
2018-03-03T00:43:18.145Z,-2.30
2018-03-03T00:45:45.707Z,-2.30
2018-03-03T00:48:13.275Z,-2.30
2018-03-03T00:50:40.814Z,-2.30
2018-03-03T00:53:08.395Z,-2.30
2018-03-03T00:55:35.930Z,-2.30
2018-03-03T00:58:03.497Z,-2.30
2018-03-03T01:00:31.193Z,-2.30
2018-03-03T01:02:58.844Z,-2.30
2018-03-03T01:05:26.836Z,-2.30
2018-03-03T01:07:55.292Z,-2.30
2018-03-03T01:10:23.598Z,-2.30
2018-03-03T01:12:52.972Z,-2.30
2018-03-03T01:15:22.687Z,-2.30
2018-03-03T01:17:50.373Z,-2.30
2018-03-03T01:20:17.954Z,-2.30
2018-03-03T01:22:45.484Z,-2.30
2018-03-03T01:25:13.032Z,-2.30
2018-03-03T01:27:40.581Z,-2.20
2018-03-03T01:30:08.131Z,-2.30
2018-03-03T01:32:35.662Z,-2.30
2018-03-03T01:35:03.977Z,-2.30
2018-03-03T01:37:31.644Z,-2.40
2018-03-03T01:40:00.277Z,-2.30
2018-03-03T01:42:27.910Z,-1.60
2018-03-03T01:44:56.578Z,-2.40
2018-03-03T01:47:25.244Z,-2.40
2018-03-03T01:49:53.886Z,-2.40
2018-03-03T01:52:22.091Z,-2.40
2018-03-03T01:54:50.479Z,-2.40
2018-03-03T01:57:19.150Z,-2.40
2018-03-03T01:59:46.855Z,-2.40
2018-03-03T02:02:14.405Z,-2.40
2018-03-03T02:04:41.960Z,-2.40
2018-03-03T02:07:09.488Z,-2.40
2018-03-03T02:09:37.778Z,-2.40
2018-03-03T02:12:06.092Z,-2.40
2018-03-03T02:14:33.708Z,-2.40
2018-03-03T02:17:02.137Z,-2.40
2018-03-03T02:19:29.968Z,-2.40
2018-03-03T02:21:58.476Z,-2.40
2018-03-03T02:24:26.328Z,-2.40
2018-03-03T02:26:54.318Z,-2.30
2018-03-03T02:29:22.597Z,-2.30
2018-03-03T02:31:51.592Z,-2.40
2018-03-03T02:34:19.184Z,-2.40
2018-03-03T02:36:48.082Z,-2.40
2018-03-03T02:39:15.635Z,-2.50
2018-03-03T02:41:43.172Z,-2.50
2018-03-03T02:44:10.739Z,-2.40
2018-03-03T02:46:38.262Z,-2.40
2018-03-03T02:49:05.817Z,-2.40
2018-03-03T02:51:33.477Z,-2.40
2018-03-03T02:54:02.086Z,-2.40
2018-03-03T02:56:29.833Z,-2.40
2018-03-03T02:58:57.506Z,-2.40
2018-03-03T03:01:25.813Z,-2.40
2018-03-03T03:03:54.155Z,-2.50
2018-03-03T03:06:21.745Z,-2.50
2018-03-03T03:08:50.403Z,-2.50
2018-03-03T03:11:17.997Z,-2.50
2018-03-03T03:13:45.536Z,-2.40
2018-03-03T03:16:13.111Z,-2.40
2018-03-03T03:18:40.633Z,-2.40
2018-03-03T03:21:08.199Z,-2.40
2018-03-03T03:23:35.725Z,-2.30
2018-03-03T03:26:03.416Z,-2.30
2018-03-03T03:28:31.025Z,-2.30
2018-03-03T03:30:58.725Z,-2.30
2018-03-03T03:33:26.529Z,-2.30
2018-03-03T03:35:54.761Z,-2.20
2018-03-03T03:38:23.699Z,-2.20
2018-03-03T03:40:51.667Z,-2.20
2018-03-03T03:43:19.328Z,-2.20
2018-03-03T03:45:47.791Z,-2.10
2018-03-03T03:48:15.370Z,-2.10
2018-03-03T03:50:42.916Z,-2.10
2018-03-03T03:53:10.462Z,-2.10
2018-03-03T03:55:38.149Z,-2.10
2018-03-03T03:58:05.713Z,-2.10
2018-03-03T04:00:33.990Z,-2.10
2018-03-03T04:03:01.625Z,-2.10
2018-03-03T04:05:29.418Z,-2.10
2018-03-03T04:07:57.420Z,-2.10
2018-03-03T04:10:26.365Z,-2.10
2018-03-03T04:12:54.840Z,-2.20
2018-03-03T04:15:23.480Z,-2.20
2018-03-03T04:17:52.853Z,-2.20
2018-03-03T04:20:20.719Z,-2.20
2018-03-03T04:22:48.464Z,-2.20
2018-03-03T04:25:16.107Z,-2.20
2018-03-03T04:27:44.687Z,-2.10
2018-03-03T04:30:13.214Z,-2.20
2018-03-03T04:32:41.001Z,-2.20
2018-03-03T04:35:09.000Z,-2.10
2018-03-03T04:37:36.815Z,-2.10
2018-03-03T04:40:04.399Z,-2.10
2018-03-03T04:42:31.970Z,-2.10
2018-03-03T04:45:00.167Z,-2.10
2018-03-03T04:47:28.501Z,-2.10
2018-03-03T04:49:56.024Z,-2.10
2018-03-03T04:52:23.584Z,-2.10
2018-03-03T04:54:51.121Z,-2.10
2018-03-03T04:57:18.932Z,-2.10
2018-03-03T04:59:50.925Z,-2.10
2018-03-03T05:02:20.007Z,-2.10
2018-03-03T05:04:53.307Z,-2.10
2018-03-03T05:10:29.845Z,-2.10
2018-03-03T05:12:58.185Z,-2.10
2018-03-03T05:15:37.702Z,-2.10
2018-03-03T05:18:09.895Z,-2.30
2018-03-03T05:20:53.401Z,-2.30
2018-03-03T05:23:27.045Z,-2.30
2018-03-03T05:29:08.614Z,-2.30
2018-03-03T05:31:41.770Z,-2.30
2018-03-03T05:37:37.156Z,-2.30
2018-03-03T05:40:21.694Z,-2.30
2018-03-03T05:42:55.222Z,-2.30
2018-03-03T05:48:33.304Z,-2.20
2018-03-03T05:54:04.318Z,-2.20
2018-03-03T05:56:37.737Z,-2.20
2018-03-03T05:59:09.234Z,-2.20
2018-03-03T06:04:43.956Z,-2.20
2018-03-03T06:07:21.597Z,-2.20
2018-03-03T06:09:51.599Z,-2.20
2018-03-03T06:12:19.468Z,-2.20
2018-03-03T06:14:47.347Z,-2.20
2018-03-03T06:17:15.951Z,-2.20
2018-03-03T06:19:43.792Z,-2.20
2018-03-03T06:22:12.062Z,-2.20
2018-03-03T06:24:40.231Z,-2.30
2018-03-03T06:27:07.900Z,-2.40
2018-03-03T06:29:35.540Z,-2.40
2018-03-03T06:32:03.077Z,-2.50
2018-03-03T06:34:31.505Z,-2.50
2018-03-03T06:36:59.045Z,-2.50
2018-03-03T06:39:26.593Z,-2.40
2018-03-03T06:41:55.555Z,-2.30
2018-03-03T06:44:24.353Z,-2.20
2018-03-03T06:46:52.654Z,-2.10
2018-03-03T06:49:20.964Z,-2.10
2018-03-03T06:51:48.525Z,-2.10
2018-03-03T06:54:16.152Z,-2.10
2018-03-03T06:56:44.354Z,-2.10
2018-03-03T06:59:12.222Z,-2.00
2018-03-03T07:01:40.395Z,-2.00
2018-03-03T07:04:08.365Z,-2.00
2018-03-03T07:06:36.951Z,-1.80
2018-03-03T07:09:05.419Z,-1.80
2018-03-03T07:11:33.111Z,-1.80
2018-03-03T07:14:00.773Z,-1.70
2018-03-03T07:16:28.340Z,-1.60
2018-03-03T07:18:55.905Z,-1.60
2018-03-03T07:21:23.538Z,-1.50
2018-03-03T07:23:51.090Z,-1.40
2018-03-03T07:26:18.621Z,-1.30
2018-03-03T07:28:47.098Z,-1.10
2018-03-03T07:31:14.682Z,-1.10
2018-03-03T07:33:42.353Z,-1.10
2018-03-03T07:36:10.101Z,-1.10
2018-03-03T07:38:39.280Z,-1.10
2018-03-03T07:41:08.297Z,-1.00
2018-03-03T07:43:35.845Z,-1.00
2018-03-03T07:46:04.278Z,-0.90
2018-03-03T07:48:32.049Z,-1.00
2018-03-03T07:50:59.907Z,-0.90
2018-03-03T07:53:27.436Z,-0.80
2018-03-03T07:55:54.993Z,-0.50
2018-03-03T07:58:31.396Z,-0.50
2018-03-03T08:00:59.142Z,-0.60
2018-03-03T08:03:26.701Z,-0.40
2018-03-03T08:05:54.238Z,-0.40
2018-03-03T08:08:21.783Z,-0.30
2018-03-03T08:10:50.081Z,-0.30
2018-03-03T08:13:17.874Z,-0.30
2018-03-03T08:15:45.633Z,-0.30
2018-03-03T08:18:13.262Z,-0.40
2018-03-03T08:20:41.054Z,-0.30
2018-03-03T08:23:08.885Z,-0.20
2018-03-03T08:25:38.430Z,0.00
2018-03-03T08:28:07.914Z,-0.10
2018-03-03T08:30:36.203Z,0.00
2018-03-03T08:33:03.907Z,0.10
2018-03-03T08:35:31.864Z,0.30
2018-03-03T08:37:59.467Z,0.40
2018-03-03T08:40:28.005Z,0.30
2018-03-03T08:42:55.579Z,0.30
2018-03-03T08:45:23.416Z,0.40
2018-03-03T08:47:50.965Z,0.60
2018-03-03T08:50:18.498Z,0.50
2018-03-03T08:52:47.016Z,0.50
2018-03-03T08:55:14.563Z,0.50
2018-03-03T08:57:42.741Z,0.70
2018-03-03T09:00:11.349Z,1.00
2018-03-03T09:02:38.949Z,0.90
2018-03-03T09:05:06.873Z,1.00
2018-03-03T09:07:36.167Z,1.10
2018-03-03T09:10:04.319Z,1.10
2018-03-03T09:12:32.523Z,1.50
2018-03-03T09:15:01.610Z,1.90
2018-03-03T09:17:29.970Z,2.00
2018-03-03T09:19:57.551Z,2.00
2018-03-03T09:22:25.077Z,1.80
2018-03-03T09:24:53.386Z,2.10
2018-03-03T09:27:20.912Z,2.10
2018-03-03T09:29:48.458Z,2.50
2018-03-03T09:32:16.017Z,2.70
2018-03-03T09:34:43.833Z,2.40
2018-03-03T09:37:11.840Z,2.70
2018-03-03T09:39:39.716Z,2.80
2018-03-03T09:42:07.648Z,3.30
2018-03-03T09:44:35.306Z,3.40
2018-03-03T09:47:04.309Z,3.80
2018-03-03T09:49:31.998Z,3.70
2018-03-03T09:51:59.549Z,4.20
2018-03-03T09:54:27.086Z,3.50
2018-03-03T09:56:54.610Z,3.40
2018-03-03T09:59:22.924Z,3.60
2018-03-03T10:01:52.333Z,3.60
2018-03-03T10:04:18.023Z,3.50
2018-03-03T10:06:45.542Z,3.00
2018-03-03T10:09:13.293Z,2.90
2018-03-03T10:11:41.331Z,2.70
2018-03-03T10:14:08.921Z,2.70
2018-03-03T10:16:37.372Z,2.30
2018-03-03T10:19:06.612Z,2.00
2018-03-03T10:21:35.462Z,2.00
2018-03-03T10:24:04.130Z,2.00
2018-03-03T10:26:34.613Z,2.40
2018-03-03T10:29:02.546Z,2.40
2018-03-03T10:31:30.132Z,2.80
2018-03-03T10:33:57.670Z,3.10
2018-03-03T10:36:25.210Z,3.10
2018-03-03T10:38:52.747Z,3.00
2018-03-03T10:41:21.063Z,2.60
2018-03-03T10:43:49.033Z,2.60
2018-03-03T10:46:16.576Z,3.30
2018-03-03T10:48:44.389Z,3.40
2018-03-03T10:51:12.049Z,3.20
2018-03-03T10:53:39.968Z,3.10
2018-03-03T10:56:07.548Z,3.30
2018-03-03T10:58:36.823Z,3.50
2018-03-03T11:01:05.730Z,3.70
2018-03-03T11:03:35.498Z,3.60
2018-03-03T11:06:03.367Z,3.60
2018-03-03T11:08:30.893Z,3.70
2018-03-03T11:10:59.800Z,3.70
2018-03-03T11:13:27.335Z,4.00
2018-03-03T11:15:54.878Z,3.60
2018-03-03T11:18:22.401Z,3.60
2018-03-03T11:20:49.945Z,3.60
2018-03-03T11:23:17.570Z,3.40
2018-03-03T11:25:46.363Z,3.60
2018-03-03T11:28:14.005Z,3.40
2018-03-03T11:30:41.804Z,3.70
2018-03-03T11:33:09.552Z,3.70
2018-03-03T11:35:37.224Z,4.00
2018-03-03T11:38:04.965Z,4.00
2018-03-03T11:40:33.499Z,4.20
2018-03-03T11:43:02.273Z,4.30
2018-03-03T11:45:29.833Z,4.30
2018-03-03T11:47:57.375Z,4.10
2018-03-03T11:50:24.893Z,4.20
2018-03-03T11:52:53.308Z,4.10
2018-03-03T11:55:20.849Z,4.00
2018-03-03T11:57:48.396Z,4.00
2018-03-03T12:00:16.907Z,4.10
2018-03-03T12:02:44.574Z,4.10
2018-03-03T12:05:12.384Z,4.40
2018-03-03T12:07:40.224Z,4.50
2018-03-03T12:10:07.945Z,4.70
2018-03-03T12:12:35.949Z,4.80
2018-03-03T12:15:05.115Z,4.30
2018-03-03T12:17:34.044Z,4.40
2018-03-03T12:20:02.598Z,4.40
2018-03-03T12:22:30.175Z,4.40
2018-03-03T12:24:57.709Z,4.30
2018-03-03T12:27:25.269Z,4.20
2018-03-03T12:29:53.608Z,4.10
2018-03-03T12:32:21.140Z,4.10
2018-03-03T12:34:48.761Z,4.10
2018-03-03T12:37:17.164Z,4.40
2018-03-03T12:39:45.414Z,4.40
2018-03-03T12:42:13.936Z,4.70
2018-03-03T12:44:41.621Z,4.70
2018-03-03T12:47:09.235Z,4.40
2018-03-03T12:49:37.839Z,4.40
2018-03-03T12:52:06.449Z,4.20
2018-03-03T12:54:35.628Z,4.30
2018-03-03T12:57:03.387Z,4.30
2018-03-03T12:59:31.052Z,4.40
2018-03-03T13:01:58.676Z,4.30
2018-03-03T13:04:26.989Z,4.50
2018-03-03T13:06:54.565Z,4.50
2018-03-03T13:09:22.065Z,4.60
2018-03-03T13:11:49.596Z,4.70
2018-03-03T13:14:17.149Z,4.50
2018-03-03T13:16:44.781Z,4.10
2018-03-03T13:19:12.365Z,4.00
2018-03-03T13:21:39.948Z,4.20
2018-03-03T13:24:07.981Z,4.10
2018-03-03T13:26:36.106Z,4.00
2018-03-03T13:29:04.681Z,3.70
2018-03-03T13:31:32.395Z,3.70
2018-03-03T13:33:59.921Z,3.40
2018-03-03T13:36:28.216Z,3.90
2018-03-03T13:38:55.736Z,3.90
2018-03-03T13:41:23.309Z,3.70
2018-03-03T13:43:50.826Z,3.50
2018-03-03T13:46:18.360Z,3.50
2018-03-03T13:48:46.145Z,4.00
2018-03-03T13:51:13.849Z,3.30
2018-03-03T13:53:41.667Z,3.30
2018-03-03T13:56:09.272Z,3.70
2018-03-03T13:58:38.048Z,3.50
2018-03-03T14:01:05.812Z,3.50
2018-03-03T14:03:33.545Z,3.40
2018-03-03T14:06:01.216Z,3.90
2018-03-03T14:08:28.745Z,3.90
2018-03-03T14:10:57.054Z,3.80
2018-03-03T14:13:24.577Z,3.80
2018-03-03T14:15:52.900Z,4.00
2018-03-03T14:18:20.433Z,4.00
2018-03-03T14:20:48.020Z,4.20
2018-03-03T14:23:15.553Z,3.70
2018-03-03T14:25:43.228Z,3.80
2018-03-03T14:28:11.278Z,3.90
2018-03-03T14:30:38.950Z,3.60
2018-03-03T14:33:07.085Z,3.40
2018-03-03T14:35:35.100Z,3.30
2018-03-03T14:38:02.797Z,3.20
2018-03-03T14:40:30.423Z,3.20
2018-03-03T14:42:57.962Z,3.40
2018-03-03T14:45:25.501Z,3.50
2018-03-03T14:47:53.049Z,3.50
2018-03-03T14:50:20.609Z,3.20
2018-03-03T14:52:48.129Z,3.30
2018-03-03T14:55:15.714Z,3.30
2018-03-03T14:57:43.625Z,3.40
2018-03-03T15:00:12.069Z,3.40
2018-03-03T15:02:40.724Z,3.50
2018-03-03T15:05:08.685Z,3.50
2018-03-03T15:07:36.442Z,3.50
2018-03-03T15:10:04.224Z,3.40
2018-03-03T15:12:34.020Z,3.20
2018-03-03T15:15:01.584Z,3.20
2018-03-03T15:17:29.187Z,3.10
2018-03-03T15:19:56.713Z,3.30
2018-03-03T15:22:24.240Z,3.60
2018-03-03T15:24:52.529Z,3.40
2018-03-03T15:27:20.828Z,3.40
2018-03-03T15:29:48.369Z,3.30
2018-03-03T15:32:15.911Z,3.20
2018-03-03T15:34:44.508Z,3.10
2018-03-03T15:37:12.912Z,3.10
2018-03-03T15:39:40.602Z,3.10
2018-03-03T15:42:08.339Z,3.00
2018-03-03T15:44:36.687Z,3.00
2018-03-03T15:47:04.790Z,3.00
2018-03-03T15:49:34.309Z,3.00
2018-03-03T15:52:02.164Z,2.80
2018-03-03T15:54:29.743Z,2.90
2018-03-03T15:56:57.273Z,3.00
2018-03-03T15:59:24.795Z,2.90
2018-03-03T16:01:53.116Z,2.60
2018-03-03T16:04:20.637Z,2.60
2018-03-03T16:06:48.946Z,2.40
2018-03-03T16:09:16.478Z,2.40
2018-03-03T16:11:44.810Z,2.30
2018-03-03T16:14:12.899Z,2.30
2018-03-03T16:16:41.264Z,2.20
2018-03-03T16:19:09.022Z,2.20
2018-03-03T16:21:36.761Z,2.20
2018-03-03T16:24:04.881Z,2.10
2018-03-03T16:26:32.570Z,2.00
2018-03-03T16:29:00.196Z,1.90
2018-03-03T16:31:27.723Z,1.90
2018-03-03T16:33:55.922Z,1.70
2018-03-03T16:36:23.466Z,1.70
2018-03-03T16:38:50.981Z,1.60
2018-03-03T16:41:19.286Z,1.60
2018-03-03T16:43:46.845Z,1.50
2018-03-03T16:46:14.505Z,1.50
2018-03-03T16:48:42.105Z,1.40
2018-03-03T16:51:09.835Z,1.30
2018-03-03T16:53:37.453Z,1.30
2018-03-03T16:56:05.463Z,1.20
2018-03-03T16:58:34.067Z,1.20
2018-03-03T17:01:01.766Z,1.10
2018-03-03T17:03:29.339Z,1.00
2018-03-03T17:05:56.897Z,1.10
2018-03-03T17:08:25.206Z,1.10
2018-03-03T17:10:52.749Z,1.10
2018-03-03T17:13:21.059Z,1.00
2018-03-03T17:15:48.705Z,1.00
2018-03-03T17:18:16.249Z,1.00
2018-03-03T17:20:44.564Z,0.80
2018-03-03T17:23:12.217Z,0.80
2018-03-03T17:25:39.860Z,0.80
2018-03-03T17:28:07.588Z,0.80
2018-03-03T17:30:35.564Z,0.70
2018-03-03T17:33:03.804Z,0.70
2018-03-03T17:35:31.461Z,0.70
2018-03-03T17:37:59.004Z,0.60
2018-03-03T17:40:26.565Z,0.50
2018-03-03T17:42:55.053Z,0.50
2018-03-03T17:45:22.589Z,0.40
2018-03-03T17:47:50.877Z,0.40
2018-03-03T17:50:18.437Z,0.40
2018-03-03T17:52:46.008Z,0.40
2018-03-03T17:55:13.785Z,0.30
2018-03-03T17:57:41.516Z,0.30
2018-03-03T18:00:09.223Z,0.20
2018-03-03T18:02:37.400Z,0.20
2018-03-03T18:05:05.873Z,0.20
2018-03-03T18:07:34.355Z,0.10
2018-03-03T18:10:02.071Z,0.10
2018-03-03T18:12:30.386Z,0.10
2018-03-03T18:14:57.920Z,0.10
2018-03-03T18:17:25.467Z,0.10
2018-03-03T18:19:53.777Z,-0.10
2018-03-03T18:22:21.321Z,-0.10
2018-03-03T18:24:49.613Z,-0.20
2018-03-03T18:27:17.145Z,-0.20
2018-03-03T18:29:45.872Z,-0.20
2018-03-03T18:32:13.658Z,-0.20
2018-03-03T18:34:41.230Z,-0.20
2018-03-03T18:37:08.982Z,-0.20
2018-03-03T18:39:36.580Z,-0.30
2018-03-03T18:42:05.208Z,-0.30
2018-03-03T18:44:33.881Z,-0.40
2018-03-03T18:47:01.761Z,-0.40
2018-03-03T18:49:30.368Z,-0.50
2018-03-03T18:51:57.920Z,-0.50
2018-03-03T18:54:25.457Z,-0.50
2018-03-03T18:56:52.997Z,-0.50
2018-03-03T18:59:20.535Z,-0.50
2018-03-03T19:01:48.117Z,-0.50
2018-03-03T19:04:15.670Z,-0.60
2018-03-03T19:06:44.192Z,-0.60
2018-03-03T19:09:11.958Z,-0.60
2018-03-03T19:11:40.149Z,-0.60
2018-03-03T19:14:07.957Z,-0.60
2018-03-03T19:16:36.698Z,-0.70
2018-03-03T19:19:05.058Z,-0.70
2018-03-03T19:21:33.869Z,-0.80
2018-03-03T19:24:02.741Z,-0.80
2018-03-03T19:26:30.728Z,-0.80
2018-03-03T19:28:58.281Z,-0.80
2018-03-03T19:31:25.806Z,-0.80
2018-03-03T19:33:53.364Z,-0.70
2018-03-03T19:36:21.662Z,-0.60
2018-03-03T19:38:49.229Z,-0.70
2018-03-03T19:41:16.790Z,-0.60
2018-03-03T19:43:44.961Z,-0.70
2018-03-03T19:46:12.594Z,-0.70
2018-03-03T19:48:40.286Z,-0.70
2018-03-03T19:51:08.980Z,-0.70
2018-03-03T19:53:37.241Z,-0.70
2018-03-03T19:56:05.374Z,-0.70
2018-03-03T19:58:34.418Z,-0.80
2018-03-03T20:01:02.490Z,-0.80
2018-03-03T20:03:30.102Z,-0.60
2018-03-03T20:05:57.652Z,-0.60
2018-03-03T20:08:25.185Z,-0.50
2018-03-03T20:10:52.736Z,-0.40
2018-03-03T20:13:20.298Z,-0.30
2018-03-03T20:15:47.873Z,-0.20
2018-03-03T20:18:15.782Z,-0.10
2018-03-03T20:20:44.341Z,-0.10
2018-03-03T20:23:12.067Z,-0.10
2018-03-03T20:25:40.670Z,-0.10
2018-03-03T20:28:08.618Z,-0.10
2018-03-03T20:30:36.210Z,0.00
2018-03-03T20:33:04.051Z,0.00
2018-03-03T20:35:31.755Z,0.00
2018-03-03T20:37:59.374Z,0.00
2018-03-03T20:40:26.930Z,0.00
2018-03-03T20:42:54.459Z,0.00
2018-03-03T20:45:22.770Z,0.00
2018-03-03T20:47:50.301Z,0.00
2018-03-03T20:50:18.613Z,0.10
2018-03-03T20:52:47.063Z,0.10
2018-03-03T20:55:15.049Z,0.10
2018-03-03T20:57:42.787Z,0.10
2018-03-03T21:00:10.572Z,0.10
2018-03-03T21:02:38.494Z,0.10
2018-03-03T21:05:07.043Z,0.10
2018-03-03T21:07:35.017Z,0.10
2018-03-03T21:10:02.979Z,0.10
2018-03-03T21:12:47.328Z,0.20
2018-03-03T21:15:14.857Z,0.20
2018-03-03T21:17:43.392Z,0.20
2018-03-03T21:20:11.126Z,0.20
2018-03-03T21:22:39.115Z,0.20
2018-03-03T21:25:07.079Z,0.30
2018-03-03T21:27:35.732Z,0.30
2018-03-03T21:30:04.091Z,0.30
2018-03-03T21:32:31.756Z,0.40
2018-03-03T21:34:59.284Z,0.30
2018-03-03T21:37:26.812Z,0.30
2018-03-03T21:39:54.353Z,0.40
2018-03-03T21:42:22.637Z,0.40
2018-03-03T21:44:50.181Z,0.40
2018-03-03T21:47:18.506Z,0.50
2018-03-03T21:49:46.053Z,0.40
2018-03-03T21:52:13.733Z,0.50
2018-03-03T21:54:41.384Z,0.50
2018-03-03T21:57:09.021Z,0.50
2018-03-03T21:59:36.648Z,0.60
2018-03-03T22:02:05.031Z,0.60
2018-03-03T22:04:33.440Z,0.70
2018-03-03T22:07:01.744Z,0.70
2018-03-03T22:09:29.311Z,0.70
2018-03-03T22:11:56.849Z,0.70
2018-03-03T22:14:24.391Z,0.70
2018-03-03T22:16:52.699Z,0.60
2018-03-03T22:19:20.225Z,0.60
2018-03-03T22:21:48.541Z,0.60
2018-03-03T22:24:16.078Z,0.60
2018-03-03T22:26:43.614Z,0.70
2018-03-03T22:29:11.935Z,0.70
2018-03-03T22:31:39.599Z,0.70
2018-03-03T22:34:07.438Z,0.70
2018-03-03T22:36:35.137Z,0.70
2018-03-03T22:39:04.219Z,0.70
2018-03-03T22:41:32.402Z,0.70
2018-03-03T22:43:59.959Z,0.70
2018-03-03T22:46:28.166Z,0.70
2018-03-03T22:48:55.733Z,0.70
2018-03-03T22:51:23.253Z,0.70
2018-03-03T22:53:50.823Z,0.60
2018-03-03T22:56:18.373Z,0.60
2018-03-03T22:58:45.901Z,0.50
2018-03-03T23:01:13.904Z,0.50
2018-03-03T23:03:41.616Z,0.40
2018-03-03T23:06:10.290Z,0.50
2018-03-03T23:08:37.878Z,0.50
2018-03-03T23:11:06.805Z,0.60
2018-03-03T23:13:34.692Z,0.60
2018-03-03T23:16:03.498Z,0.60
2018-03-03T23:18:31.225Z,0.60
2018-03-03T23:20:58.862Z,0.60
2018-03-03T23:23:26.405Z,0.50
2018-03-03T23:25:53.952Z,0.40
2018-03-03T23:28:22.260Z,0.40
2018-03-03T23:30:50.566Z,0.40
2018-03-03T23:33:18.136Z,0.40
2018-03-03T23:35:45.681Z,0.40
2018-03-03T23:38:13.405Z,0.30
2018-03-03T23:40:41.016Z,0.30
2018-03-03T23:43:08.812Z,0.20
2018-03-03T23:45:37.225Z,0.10
2018-03-03T23:48:05.755Z,0.10
2018-03-03T23:50:33.813Z,0.10
2018-03-03T23:53:01.409Z,0.10
2018-03-03T23:55:29.952Z,0.10
2018-03-03T23:57:57.505Z,0.00
